createdAt,value
2022-11-08T00:02:23.251Z,99728.31
2022-11-08T00:04:52.639Z,99737.19
2022-11-08T00:07:38.105Z,99732.06
2022-11-08T00:10:23.611Z,99735.69
2022-11-08T00:13:08.807Z,99743.75
2022-11-08T00:15:38.705Z,99750.03
2022-11-08T00:18:07.231Z,99744.03
2022-11-08T00:20:34.945Z,99759.03
2022-11-08T00:23:01.969Z,99746.75
2022-11-08T00:25:28.696Z,99750.31
2022-11-08T00:27:55.291Z,99761.03
2022-11-08T00:30:21.888Z,99755.88
2022-11-08T00:32:48.486Z,99761.22
2022-11-08T00:35:15.330Z,99750.72
2022-11-08T00:37:42.019Z,99757.09
2022-11-08T00:40:09.059Z,99757.97
2022-11-08T00:42:35.608Z,99756.22
2022-11-08T00:45:02.255Z,99752.69
2022-11-08T00:47:28.831Z,99763.28
2022-11-08T00:49:57.996Z,99769.56
2022-11-08T00:52:24.999Z,99773.97
2022-11-08T00:54:56.336Z,99775.84
2022-11-08T00:57:40.854Z,99779.44
2022-11-08T01:00:13.181Z,99774.28
2022-11-08T01:02:39.820Z,99776.19
2022-11-08T01:05:06.688Z,99779.78
2022-11-08T01:07:34.127Z,99778.97
2022-11-08T01:10:00.756Z,99779.06
2022-11-08T01:12:27.368Z,99785.31
2022-11-08T01:14:54.423Z,99797.75
2022-11-08T01:17:21.175Z,99792.47
2022-11-08T01:19:47.976Z,99795.16
2022-11-08T01:22:17.448Z,99803.03
2022-11-08T01:24:44.032Z,99792.47
2022-11-08T01:27:10.801Z,99799.59
2022-11-08T01:29:37.395Z,99802.28
2022-11-08T01:32:04.067Z,99808.59
2022-11-08T01:34:33.502Z,99799.00
2022-11-08T01:37:00.040Z,99808.72
2022-11-08T01:39:27.447Z,99814.91
2022-11-08T01:41:57.144Z,99820.25
2022-11-08T01:44:28.113Z,99814.97
2022-11-08T01:46:54.708Z,99815.03
2022-11-08T01:49:32.355Z,99807.97
2022-11-08T01:52:05.125Z,99815.91
2022-11-08T01:54:35.989Z,99810.75
2022-11-08T01:57:07.140Z,99823.94
2022-11-08T01:59:41.686Z,99824.00
2022-11-08T02:02:16.183Z,99828.50
2022-11-08T02:04:43.889Z,99823.22
2022-11-08T02:07:13.306Z,99828.50
2022-11-08T02:09:43.135Z,99831.16
2022-11-08T02:12:11.009Z,99829.44
2022-11-08T02:14:38.115Z,99828.50
2022-11-08T02:17:06.969Z,99837.34
2022-11-08T02:19:43.935Z,99830.28
2022-11-08T02:22:22.764Z,99825.97
2022-11-08T02:24:49.404Z,99827.69
2022-11-08T02:27:19.048Z,99837.34
2022-11-08T02:29:45.631Z,99845.28
2022-11-08T02:32:12.725Z,99853.19
2022-11-08T02:34:44.111Z,99848.81
2022-11-08T02:37:13.298Z,99850.56
2022-11-08T02:39:39.906Z,99862.03
2022-11-08T02:42:06.540Z,99866.47
2022-11-08T02:44:33.244Z,99867.31
2022-11-08T02:46:59.857Z,99871.69
2022-11-08T02:49:26.450Z,99866.47
2022-11-08T02:51:54.104Z,99870.03
2022-11-08T02:54:21.029Z,99871.88
2022-11-08T02:56:50.805Z,99866.56
2022-11-08T02:59:20.273Z,99884.13
2022-11-08T03:01:46.906Z,99885.03
2022-11-08T03:04:13.724Z,99887.66
2022-11-08T03:06:40.325Z,99893.00
2022-11-08T03:09:06.956Z,99899.19
2022-11-08T03:11:33.593Z,99902.69
2022-11-08T03:14:00.209Z,99906.28
2022-11-08T03:16:26.794Z,99907.16
2022-11-08T03:18:53.868Z,99902.81
2022-11-08T03:21:23.577Z,99913.38
2022-11-08T03:23:50.222Z,99914.25
2022-11-08T03:26:16.826Z,99923.00
2022-11-08T03:28:43.468Z,99919.53
2022-11-08T03:31:10.260Z,99928.38
2022-11-08T03:33:37.004Z,99937.16
2022-11-08T03:36:03.880Z,99938.09
2022-11-08T03:38:32.828Z,99937.16
2022-11-08T03:40:59.422Z,99936.28
2022-11-08T03:43:26.580Z,99941.56
2022-11-08T03:45:53.396Z,99934.50
2022-11-08T03:48:20.756Z,99942.44
2022-11-08T03:50:47.509Z,99945.06
2022-11-08T03:53:14.044Z,99946.00
2022-11-08T03:55:44.321Z,99946.94
2022-11-08T03:58:12.112Z,99943.38
2022-11-08T04:00:41.754Z,99942.50
2022-11-08T04:03:11.762Z,99947.78
2022-11-08T04:05:38.333Z,99946.03
2022-11-08T04:08:05.441Z,99954.03
2022-11-08T04:10:32.418Z,99954.03
2022-11-08T04:13:19.072Z,99958.50
2022-11-08T04:15:46.691Z,99966.44
2022-11-08T04:18:31.626Z,99966.44
2022-11-08T04:21:19.286Z,99962.91
2022-11-08T04:23:47.022Z,99973.56
2022-11-08T04:26:13.627Z,99976.25
2022-11-08T04:28:41.669Z,99982.38
2022-11-08T04:31:16.665Z,99984.13
2022-11-08T04:33:43.900Z,99992.91
2022-11-08T04:36:13.529Z,99996.41
2022-11-08T04:38:42.467Z,99996.47
2022-11-08T04:41:14.528Z,99998.13
2022-11-08T04:43:41.573Z,100004.41
2022-11-08T04:46:10.429Z,100002.66
2022-11-08T04:48:37.119Z,100005.38
2022-11-08T04:51:13.030Z,100014.22
2022-11-08T04:53:39.853Z,100012.56
2022-11-08T04:56:27.659Z,100019.63
2022-11-08T04:58:56.560Z,100018.88
2022-11-08T05:01:28.648Z,100025.00
2022-11-08T05:03:55.911Z,100033.03
2022-11-08T05:06:27.967Z,100035.69
2022-11-08T05:08:56.001Z,100038.31
2022-11-08T05:11:26.068Z,100031.38
2022-11-08T05:13:53.013Z,100043.63
2022-11-08T05:16:32.140Z,100042.78
2022-11-08T05:18:59.279Z,100050.72
2022-11-08T05:21:45.665Z,100049.81
2022-11-08T05:24:15.558Z,100048.16
2022-11-08T05:26:44.383Z,100050.81
2022-11-08T05:29:12.712Z,100044.75
2022-11-08T05:31:39.784Z,100053.53
2022-11-08T05:34:07.706Z,100056.09
2022-11-08T05:36:34.495Z,100067.47
2022-11-08T05:39:01.071Z,100073.72
2022-11-08T05:41:27.653Z,100079.84
2022-11-08T05:43:55.290Z,100075.59
2022-11-08T05:46:23.660Z,100073.06
2022-11-08T05:48:51.093Z,100081.91
2022-11-08T05:51:19.026Z,100084.72
2022-11-08T05:53:47.271Z,100091.72
2022-11-08T05:56:14.347Z,100090.00
2022-11-08T05:58:41.049Z,100090.03
2022-11-08T06:01:13.128Z,100095.38
2022-11-08T06:03:39.943Z,100103.25
2022-11-08T06:06:12.346Z,100096.16
2022-11-08T06:08:39.957Z,100108.38
2022-11-08T06:11:12.296Z,100110.03
2022-11-08T06:13:39.444Z,100116.16
2022-11-08T06:16:09.617Z,100108.31
2022-11-08T06:18:36.960Z,100123.19
2022-11-08T06:21:05.517Z,100111.78
2022-11-08T06:23:32.792Z,100121.44
2022-11-08T06:26:00.100Z,100124.97
2022-11-08T06:28:27.333Z,100128.47
2022-11-08T06:30:54.165Z,100132.75
2022-11-08T06:33:21.836Z,100133.56
2022-11-08T06:35:48.621Z,100132.66
2022-11-08T06:38:15.220Z,100143.97
2022-11-08T06:40:41.878Z,100142.16
2022-11-08T06:43:14.932Z,100151.75
2022-11-08T06:45:44.986Z,100157.94
2022-11-08T06:48:11.556Z,100165.81
2022-11-08T06:50:38.188Z,100168.38
2022-11-08T06:53:06.981Z,100168.34
2022-11-08T06:55:35.072Z,100163.84
2022-11-08T06:58:02.041Z,100179.66
2022-11-08T07:00:28.937Z,100179.66
2022-11-08T07:02:57.322Z,100185.75
2022-11-08T07:05:24.646Z,100188.38
2022-11-08T07:07:54.149Z,100202.41
2022-11-08T07:10:22.682Z,100199.78
2022-11-08T07:12:56.209Z,100204.13
2022-11-08T07:15:23.013Z,100206.72
2022-11-08T07:17:49.677Z,100208.41
2022-11-08T07:20:16.386Z,100211.81
2022-11-08T07:22:42.966Z,100216.94
2022-11-08T07:25:09.729Z,100218.72
2022-11-08T07:27:36.304Z,100221.44
2022-11-08T07:30:03.392Z,100233.78
2022-11-08T07:32:29.968Z,100230.34
2022-11-08T07:34:56.512Z,100227.78
2022-11-08T07:37:23.049Z,100241.06
2022-11-08T07:39:52.277Z,100243.75
2022-11-08T07:42:18.855Z,100245.59
2022-11-08T07:44:45.413Z,100251.75
2022-11-08T07:47:12.028Z,100251.00
2022-11-08T07:49:38.591Z,100256.34
2022-11-08T07:52:05.341Z,100266.09
2022-11-08T07:54:31.971Z,100270.50
2022-11-08T07:56:58.530Z,100264.38
2022-11-08T07:59:25.135Z,100279.34
2022-11-08T08:01:51.808Z,100279.47
2022-11-08T08:04:18.466Z,100287.44
2022-11-08T08:06:45.020Z,100291.03
2022-11-08T08:09:11.614Z,100286.72
2022-11-08T08:11:41.367Z,100284.06
2022-11-08T08:14:07.958Z,100284.06
2022-11-08T08:16:36.854Z,100285.84
2022-11-08T08:19:04.537Z,100292.91
2022-11-08T08:21:31.145Z,100290.22
2022-11-08T08:23:57.748Z,100292.91
2022-11-08T08:26:24.386Z,100292.06
2022-11-08T08:28:50.987Z,100285.03
2022-11-08T08:31:17.775Z,100290.31
2022-11-08T08:33:44.425Z,100299.16
2022-11-08T08:36:11.190Z,100302.56
2022-11-08T08:38:44.141Z,100301.63
2022-11-08T08:41:11.289Z,100308.56
2022-11-08T08:43:37.965Z,100304.91
2022-11-08T08:46:06.501Z,100306.53
2022-11-08T08:48:33.725Z,100305.56
2022-11-08T08:51:00.303Z,100303.78
2022-11-08T08:53:27.243Z,100301.16
2022-11-08T08:55:53.941Z,100306.34
2022-11-08T08:58:21.268Z,100302.75
2022-11-08T09:03:36.134Z,100300.13
2022-11-08T09:06:02.976Z,100298.31
2022-11-08T09:08:30.153Z,100307.94
2022-11-08T09:10:58.817Z,100296.53
2022-11-08T09:13:30.954Z,100297.31
2022-11-08T09:15:59.085Z,100306.94
2022-11-08T09:18:25.727Z,100319.13
2022-11-08T09:20:55.518Z,100310.19
2022-11-08T09:23:22.083Z,100315.41
2022-11-08T09:25:48.835Z,100320.59
2022-11-08T09:28:18.320Z,100314.47
2022-11-08T09:30:44.958Z,100327.59
2022-11-08T09:33:11.545Z,100333.75
2022-11-08T09:35:38.175Z,100326.66
2022-11-08T09:38:04.803Z,100329.13
2022-11-08T09:40:42.488Z,100329.78
2022-11-08T09:43:36.413Z,100332.28
2022-11-08T09:46:02.996Z,100326.00
2022-11-08T09:48:34.916Z,100329.47
2022-11-08T09:51:10.285Z,100332.81
2022-11-08T09:53:51.978Z,100337.13
2022-11-08T09:56:21.743Z,100331.03
2022-11-08T09:59:25.647Z,100329.41
2022-11-08T10:01:52.385Z,100333.16
2022-11-08T10:04:26.103Z,100334.03
2022-11-08T10:06:58.198Z,100331.53
2022-11-08T10:09:53.547Z,100335.06
2022-11-08T10:12:54.781Z,100338.63
2022-11-08T10:15:42.962Z,100333.16
2022-11-08T10:18:40.031Z,100331.28
2022-11-08T10:21:44.250Z,100333.81
2022-11-08T10:24:35.212Z,100323.09
2022-11-08T10:27:03.458Z,100337.13
2022-11-08T10:29:42.051Z,100337.00
2022-11-08T10:32:08.597Z,100348.28
2022-11-08T10:34:46.668Z,100346.34
2022-11-08T10:37:15.590Z,100338.25
2022-11-08T10:40:00.078Z,100333.72
2022-11-08T10:42:49.546Z,100337.06
2022-11-08T10:45:16.298Z,100344.09
2022-11-08T10:47:46.273Z,100339.56
2022-11-08T10:50:20.020Z,100343.84
2022-11-08T10:53:01.703Z,100332.31
2022-11-08T10:55:38.657Z,100328.69
2022-11-08T10:58:30.900Z,100326.03
2022-11-08T11:01:27.138Z,100333.13
2022-11-08T11:03:54.098Z,100335.81
2022-11-08T11:06:29.912Z,100340.13
2022-11-08T11:09:02.809Z,100341.06
2022-11-08T11:11:32.070Z,100348.16
2022-11-08T11:14:14.609Z,100355.47
2022-11-08T11:16:54.150Z,100351.22
2022-11-08T11:19:21.191Z,100362.72
2022-11-08T11:21:56.019Z,100361.03
2022-11-08T11:24:23.575Z,100357.56
2022-11-08T11:27:02.559Z,100355.94
2022-11-08T11:29:35.282Z,100353.38
2022-11-08T11:32:20.583Z,100349.91
2022-11-08T11:34:54.219Z,100361.34
2022-11-08T11:37:55.571Z,100356.06
2022-11-08T11:40:33.960Z,100354.22
2022-11-08T11:43:25.484Z,100352.41
2022-11-08T11:46:10.534Z,100347.97
2022-11-08T11:48:44.721Z,100348.94
2022-11-08T11:51:11.764Z,100348.09
2022-11-08T11:53:40.255Z,100344.50
2022-11-08T11:56:41.503Z,100347.91
2022-11-08T11:59:33.590Z,100344.31
2022-11-08T12:02:25.144Z,100353.84
2022-11-08T12:05:42.163Z,100352.06
2022-11-08T12:08:20.646Z,100361.78
2022-11-08T12:10:59.318Z,100353.84
2022-11-08T12:13:34.928Z,100349.38
2022-11-08T12:16:26.166Z,100347.53
2022-11-08T12:19:21.048Z,100338.56
2022-11-08T12:22:14.248Z,100346.34
2022-11-08T12:25:31.639Z,100354.31
2022-11-08T12:28:17.193Z,100354.50
2022-11-08T12:30:51.786Z,100353.53
2022-11-08T12:33:40.067Z,100352.44
2022-11-08T12:36:12.990Z,100352.28
2022-11-08T12:38:48.251Z,100345.13
2022-11-08T12:41:20.837Z,100342.38
2022-11-08T12:44:10.118Z,100338.84
2022-11-08T12:46:58.516Z,100330.75
2022-11-08T12:49:37.053Z,100344.81
2022-11-08T12:52:22.021Z,100344.88
2022-11-08T12:54:53.584Z,100338.69
2022-11-08T12:57:27.578Z,100343.94
2022-11-08T13:00:18.633Z,100344.81
2022-11-08T13:02:57.398Z,100339.50
2022-11-08T13:05:33.428Z,100340.38
2022-11-08T13:08:20.388Z,100334.22
2022-11-08T13:10:53.993Z,100335.16
2022-11-08T13:13:31.498Z,100337.91
2022-11-08T13:16:08.718Z,100337.28
2022-11-08T13:18:42.547Z,100341.81
2022-11-08T13:21:30.142Z,100340.19
2022-11-08T13:24:10.018Z,100344.59
2022-11-08T13:26:43.192Z,100345.53
2022-11-08T13:29:17.139Z,100341.16
2022-11-08T13:32:03.047Z,100347.31
2022-11-08T13:34:56.472Z,100347.31
2022-11-08T13:38:07.678Z,100345.50
2022-11-08T13:41:03.613Z,100339.19
2022-11-08T13:43:32.882Z,100346.34
2022-11-08T13:46:27.724Z,100333.16
2022-11-08T13:49:05.386Z,100337.59
2022-11-08T13:51:37.306Z,100327.88
2022-11-08T13:54:22.374Z,100333.97
2022-11-08T13:56:53.776Z,100330.47
2022-11-08T13:59:29.378Z,100333.16
2022-11-08T14:02:02.886Z,100329.72
2022-11-08T14:05:07.996Z,100332.31
2022-11-08T14:07:44.413Z,100335.88
2022-11-08T14:10:25.697Z,100323.56
2022-11-08T14:13:16.396Z,100329.72
2022-11-08T14:15:51.891Z,100321.78
2022-11-08T14:18:27.149Z,100327.94
2022-11-08T14:20:54.917Z,100336.81
2022-11-08T14:23:34.286Z,100325.41
2022-11-08T14:26:11.061Z,100329.94
2022-11-08T14:28:43.163Z,100336.16
2022-11-08T14:31:23.935Z,100331.75
2022-11-08T14:33:50.577Z,100330.88
2022-11-08T14:36:19.814Z,100324.66
2022-11-08T14:38:50.333Z,100328.22
2022-11-08T14:41:25.648Z,100321.19
2022-11-08T14:43:54.340Z,100310.59
2022-11-08T14:46:29.011Z,100319.47
2022-11-08T14:48:57.256Z,100320.31
2022-11-08T14:51:25.614Z,100310.59
2022-11-08T14:53:56.609Z,100313.31
2022-11-08T14:56:26.138Z,100315.16
2022-11-08T14:58:54.819Z,100313.50
2022-11-08T15:01:24.726Z,100315.25
2022-11-08T15:04:05.196Z,100306.53
2022-11-08T15:06:35.388Z,100300.31
2022-11-08T15:09:04.892Z,100313.53
2022-11-08T15:11:42.911Z,100303.88
2022-11-08T15:14:19.426Z,100313.53
2022-11-08T15:16:52.712Z,100313.66
2022-11-08T15:19:40.062Z,100309.22
2022-11-08T15:22:26.459Z,100310.97
2022-11-08T15:25:08.287Z,100300.28
2022-11-08T15:27:34.888Z,100293.25
2022-11-08T15:30:06.888Z,100291.53
2022-11-08T15:32:37.538Z,100289.81
2022-11-08T15:35:06.563Z,100282.78
2022-11-08T15:37:37.809Z,100286.31
2022-11-08T15:40:07.443Z,100289.81
2022-11-08T15:42:35.271Z,100284.53
2022-11-08T15:45:12.417Z,100279.22
2022-11-08T15:47:42.006Z,100283.66
2022-11-08T15:50:25.664Z,100272.19
2022-11-08T15:52:55.153Z,100279.22
2022-11-08T15:55:30.164Z,100276.59
2022-11-08T15:57:58.978Z,100267.72
2022-11-08T16:00:28.568Z,100264.22
2022-11-08T16:02:55.802Z,100258.09
2022-11-08T16:05:25.535Z,100250.16
2022-11-08T16:07:53.216Z,100255.44
2022-11-08T16:10:28.728Z,100254.50
2022-11-08T16:12:56.479Z,100243.06
2022-11-08T16:15:24.808Z,100242.09
2022-11-08T16:17:51.931Z,100236.81
2022-11-08T16:20:21.308Z,100243.81
2022-11-08T16:22:47.943Z,100237.69
2022-11-08T16:25:14.611Z,100239.41
2022-11-08T16:27:41.245Z,100241.09
2022-11-08T16:30:16.037Z,100237.50
2022-11-08T16:32:42.972Z,100232.19
2022-11-08T16:35:13.072Z,100238.34
2022-11-08T16:37:41.031Z,100231.28
2022-11-08T16:40:14.009Z,100240.09
2022-11-08T16:42:40.588Z,100229.44
2022-11-08T16:45:07.828Z,100234.66
2022-11-08T16:47:35.128Z,100231.16
2022-11-08T16:50:01.819Z,100227.63
2022-11-08T16:52:28.430Z,100224.91
2022-11-08T16:54:54.960Z,100223.94
2022-11-08T16:57:34.192Z,100219.53
2022-11-08T17:00:01.586Z,100224.91
2022-11-08T17:02:34.039Z,100224.06
2022-11-08T17:05:00.592Z,100219.63
2022-11-08T17:07:28.199Z,100216.91
2022-11-08T17:09:54.815Z,100213.41
2022-11-08T17:12:21.715Z,100213.47
2022-11-08T17:14:48.334Z,100215.25
2022-11-08T17:17:15.470Z,100214.41
2022-11-08T17:19:42.204Z,100217.91
2022-11-08T17:22:08.800Z,100212.63
2022-11-08T17:24:35.426Z,100215.19
2022-11-08T17:27:02.412Z,100202.88
2022-11-08T17:29:29.088Z,100198.38
2022-11-08T17:31:55.690Z,100195.75
2022-11-08T17:34:22.391Z,100208.06
2022-11-08T17:36:52.739Z,100208.91
2022-11-08T17:39:19.371Z,100201.84
2022-11-08T17:41:45.952Z,100193.06
2022-11-08T17:44:12.717Z,100197.50
2022-11-08T17:46:39.315Z,100209.78
2022-11-08T17:49:05.880Z,100199.19
2022-11-08T17:51:32.523Z,100196.56
2022-11-08T17:53:59.294Z,100202.66
2022-11-08T17:56:25.921Z,100195.50
2022-11-08T17:58:52.656Z,100184.88
2022-11-08T18:01:19.637Z,100184.81
2022-11-08T18:03:46.385Z,100189.19
2022-11-08T18:06:14.442Z,100172.41
2022-11-08T18:08:41.947Z,100176.78
2022-11-08T18:11:08.872Z,100174.03
2022-11-08T18:13:36.000Z,100179.28
2022-11-08T18:16:11.757Z,100182.88
2022-11-08T18:18:39.259Z,100180.22
2022-11-08T18:21:07.685Z,100179.28
2022-11-08T18:23:34.333Z,100179.28
2022-11-08T18:26:01.531Z,100170.44
2022-11-08T18:28:28.222Z,100173.88
2022-11-08T18:30:54.836Z,100173.88
2022-11-08T18:33:21.993Z,100171.25
2022-11-08T18:35:48.816Z,100173.78
2022-11-08T18:38:15.383Z,100169.25
2022-11-08T18:40:45.676Z,100161.31
2022-11-08T18:43:12.248Z,100162.94
2022-11-08T18:45:39.067Z,100163.72
2022-11-08T18:48:06.404Z,100160.97
2022-11-08T18:50:33.111Z,100160.88
2022-11-08T18:53:03.766Z,100158.19
2022-11-08T18:55:31.826Z,100163.38
2022-11-08T18:58:01.293Z,100157.16
2022-11-08T19:00:27.905Z,100170.34
2022-11-08T19:02:54.957Z,100171.06
2022-11-08T19:05:21.654Z,100172.66
2022-11-08T19:07:48.214Z,100167.38
2022-11-08T19:10:14.840Z,100163.78
2022-11-08T19:12:41.526Z,100166.31
2022-11-08T19:15:08.851Z,100168.09
2022-11-08T19:17:36.473Z,100165.38
2022-11-08T19:20:04.038Z,100165.25
2022-11-08T19:22:30.880Z,100170.44
2022-11-08T19:24:57.456Z,100166.84
2022-11-08T19:27:24.174Z,100166.72
2022-11-08T19:29:50.801Z,100168.47
2022-11-08T19:32:17.605Z,100166.59
2022-11-08T19:34:46.991Z,100160.31
2022-11-08T19:37:13.599Z,100159.34
2022-11-08T19:39:40.228Z,100153.97
2022-11-08T19:42:06.891Z,100164.50
2022-11-08T19:44:33.617Z,100160.84
2022-11-08T19:47:00.280Z,100164.34
2022-11-08T19:49:28.780Z,100160.72
2022-11-08T19:51:55.435Z,100157.19
2022-11-08T19:54:22.075Z,100159.75
2022-11-08T19:57:05.476Z,100165.97
2022-11-08T19:59:32.904Z,100167.63
2022-11-08T20:01:59.956Z,100163.19
2022-11-08T20:04:26.715Z,100150.75
2022-11-08T20:06:53.476Z,100156.00
2022-11-08T20:09:20.137Z,100161.28
2022-11-08T20:11:46.733Z,100164.72
2022-11-08T20:14:14.005Z,100156.72
2022-11-08T20:16:42.878Z,100154.00
2022-11-08T20:19:12.671Z,100158.31
2022-11-08T20:21:42.130Z,100158.31
2022-11-08T20:24:10.403Z,100157.44
2022-11-08T20:26:38.567Z,100161.88
2022-11-08T20:29:07.205Z,100161.00
2022-11-08T20:31:34.140Z,100158.31
2022-11-08T20:34:01.694Z,100156.59
2022-11-08T20:36:33.158Z,100163.59
2022-11-08T20:39:06.482Z,100157.44
2022-11-08T20:41:35.523Z,100158.31
2022-11-08T20:44:02.595Z,100149.41
2022-11-08T20:46:29.671Z,100152.06
2022-11-08T20:49:00.257Z,100163.47
2022-11-08T20:51:28.624Z,100151.00
2022-11-08T20:53:56.156Z,100147.44
2022-11-08T20:56:23.779Z,100146.50
2022-11-08T20:58:51.837Z,100148.22
2022-11-08T21:01:21.287Z,100147.31
2022-11-08T21:03:48.379Z,100132.19
2022-11-08T21:06:17.716Z,100119.75
2022-11-08T21:09:08.249Z,100120.53
2022-11-08T21:11:34.651Z,100133.78
2022-11-08T21:14:03.118Z,100126.69
2022-11-08T21:16:33.341Z,100130.16
2022-11-08T21:19:09.306Z,100119.41
2022-11-08T21:21:35.960Z,100132.44
2022-11-08T21:24:02.926Z,100130.59
2022-11-08T21:26:29.641Z,100120.72
2022-11-08T21:28:56.293Z,100123.28
2022-11-08T21:31:23.060Z,100127.75
2022-11-08T21:33:49.854Z,100124.19
2022-11-08T21:36:17.802Z,100115.28
2022-11-08T21:38:44.733Z,100105.56
2022-11-08T21:41:11.788Z,100102.03
2022-11-08T21:43:43.349Z,100105.56
2022-11-08T21:46:20.556Z,100098.53
2022-11-08T21:48:52.448Z,100101.25
2022-11-08T21:51:19.116Z,100103.84
2022-11-08T21:53:54.083Z,100102.97
2022-11-08T21:56:23.629Z,100099.44
2022-11-08T21:58:50.317Z,100102.09
2022-11-08T22:01:17.538Z,100101.25
2022-11-08T22:03:44.436Z,100105.69
2022-11-08T22:06:11.056Z,100093.38
2022-11-08T22:08:37.714Z,100103.03
2022-11-08T22:11:04.502Z,100104.81
2022-11-08T22:13:31.168Z,100110.97
2022-11-08T22:15:57.861Z,100105.56
2022-11-08T22:18:42.966Z,100098.41
2022-11-08T22:21:31.445Z,100084.22
2022-11-08T22:23:58.097Z,100087.63
2022-11-08T22:26:24.714Z,100078.78
2022-11-08T22:28:51.366Z,100079.63
2022-11-08T22:31:17.979Z,100073.34
2022-11-08T22:33:44.592Z,100069.75
2022-11-08T22:36:11.985Z,100075.03
2022-11-08T22:38:38.918Z,100082.06
2022-11-08T22:41:05.905Z,100069.75
2022-11-08T22:43:36.416Z,100074.19
2022-11-08T22:46:03.761Z,100071.47
2022-11-08T22:48:30.482Z,100065.31
2022-11-08T22:50:57.562Z,100059.16
2022-11-08T22:53:27.572Z,100058.28
2022-11-08T22:55:54.332Z,100066.28
2022-11-08T22:58:21.299Z,100061.94
2022-11-08T23:00:50.053Z,100071.59
2022-11-08T23:03:16.983Z,100064.59
2022-11-08T23:05:52.025Z,100061.94
2022-11-08T23:08:20.041Z,100067.31
2022-11-08T23:11:09.758Z,100060.28
2022-11-08T23:13:57.959Z,100051.41
2022-11-08T23:16:37.901Z,100053.13
2022-11-08T23:19:29.015Z,100055.69
2022-11-08T23:22:14.703Z,100052.13
2022-11-08T23:24:44.993Z,100049.47
2022-11-08T23:27:32.767Z,100060.00
2022-11-08T23:30:17.952Z,100056.41
2022-11-08T23:32:47.440Z,100062.59
2022-11-08T23:35:15.198Z,100054.56
2022-11-08T23:37:41.875Z,100060.72
2022-11-08T23:40:29.408Z,100058.88
2022-11-08T23:43:22.156Z,100056.13
2022-11-08T23:45:49.340Z,100056.97
2022-11-08T23:48:15.995Z,100053.47
2022-11-08T23:50:55.772Z,100057.81
2022-11-08T23:53:25.251Z,100056.03
2022-11-08T23:55:55.739Z,100047.13
2022-11-08T23:58:23.087Z,100035.66
